Time;durP1;ratioP1;P1;durP2;ratioP2;P2;SDS_P1;SDS_P2;PMS_P1;PMS_P2;Temp;Humidity;BMP_temperature;BMP_pressure;BME280_temperature;BME280_humidity;BME280_pressure;Samples;Min_cycle;Max_cycle;Signal;HPM_P1;HPM_P2
2023/06/15 00:01:16;;;;;;;6.03;2.90;;;17.20;99.80;;;;;;5122812;27;20050;-66
2023/06/15 00:03:42;;;;;;;4.15;3.15;;;17.10;99.60;;;;;;5126645;27;20091;-68
2023/06/15 00:06:08;;;;;;;3.67;3.03;;;17.10;99.60;;;;;;5144088;27;20054;-66
2023/06/15 00:08:34;;;;;;;4.63;3.10;;;17.10;99.90;;;;;;5145317;27;20031;-67
2023/06/15 00:11:00;;;;;;;3.67;3.03;;;17.00;99.90;;;;;;5145375;27;20050;-67
2023/06/15 00:13:26;;;;;;;6.47;3.63;;;17.00;99.80;;;;;;5138429;27;20085;-66
2023/06/15 00:15:52;;;;;;;5.78;3.35;;;17.00;99.60;;;;;;5145724;27;20126;-68
2023/06/15 00:18:18;;;;;;;4.38;3.17;;;17.00;99.80;;;;;;5123410;27;20062;-66
2023/06/15 00:20:44;;;;;;;5.53;3.13;;;16.90;99.50;;;;;;5114921;27;20042;-67
2023/06/15 00:23:10;;;;;;;3.50;2.70;;;16.90;99.70;;;;;;5144930;27;20066;-67
2023/06/15 00:25:38;;;;;;;2.88;2.63;;;16.90;99.90;;;;;;5143915;27;20058;-68
2023/06/15 00:28:04;;;;;;;3.78;2.97;;;16.90;99.90;;;;;;5132368;27;20062;-67
2023/06/15 00:30:30;;;;;;;3.85;3.03;;;16.90;99.90;;;;;;5142872;27;20047;-67
2023/06/15 00:32:56;;;;;;;5.45;3.03;;;16.80;99.90;;;;;;5114711;27;20508;-67
2023/06/15 00:35:21;;;;;;;3.38;3.08;;;16.80;99.90;;;;;;5141381;27;20104;-66
2023/06/15 00:37:47;;;;;;;3.38;2.42;;;16.80;99.90;;;;;;5139795;27;20042;-67
2023/06/15 00:40:13;;;;;;;4.63;3.30;;;16.80;99.90;;;;;;5142863;27;20768;-66
2023/06/15 00:42:38;;;;;;;7.13;3.70;;;16.80;99.90;;;;;;5124638;27;20078;-66
2023/06/15 00:45:06;;;;;;;5.15;3.65;;;16.70;99.90;;;;;;5122390;27;20059;-67
2023/06/15 00:47:38;;;;;;;4.68;3.30;;;16.70;99.90;;;;;;5137805;27;20047;-66
2023/06/15 00:50:09;;;;;;;8.43;3.73;;;16.70;99.90;;;;;;5105949;27;20108;-68
2023/06/15 00:52:36;;;;;;;4.15;3.65;;;16.70;99.90;;;;;;5133503;27;20290;-68
2023/06/15 00:55:03;;;;;;;4.22;3.78;;;16.60;99.90;;;;;;5124255;27;20383;-67
2023/06/15 00:57:30;;;;;;;5.50;3.72;;;16.60;99.90;;;;;;5131899;27;20047;-67
2023/06/15 00:59:56;;;;;;;5.25;3.78;;;16.60;99.90;;;;;;5126976;27;20054;-66
2023/06/15 01:02:24;;;;;;;4.88;3.72;;;16.60;99.90;;;;;;5144222;27;20765;-66
2023/06/15 01:04:50;;;;;;;4.28;3.40;;;16.60;99.90;;;;;;5143828;27;20054;-67
2023/06/15 01:07:20;;;;;;;4.75;3.65;;;16.60;99.90;;;;;;5144347;27;20050;-66
2023/06/15 01:09:48;;;;;;;4.95;3.55;;;16.60;99.90;;;;;;5142452;27;20527;-66
2023/06/15 01:12:17;;;;;;;4.03;3.13;;;16.50;99.90;;;;;;5120576;27;20494;-68
2023/06/15 01:14:43;;;;;;;6.38;3.58;;;16.60;99.90;;;;;;5131460;27;20575;-66
2023/06/15 01:17:15;;;;;;;5.25;3.75;;;16.50;99.90;;;;;;5138407;27;20038;-68
2023/06/15 01:20:08;;;;;;;3.60;3.30;;;16.50;99.90;;;;;;5144155;27;20043;-66
2023/06/15 01:22:49;;;;;;;9.93;4.30;;;16.50;99.90;;;;;;5109380;27;20158;-66
2023/06/15 01:25:26;;;;;;;4.88;3.42;;;16.50;99.90;;;;;;5129182;27;20184;-66
2023/06/15 01:28:01;;;;;;;7.47;3.38;;;16.20;99.90;;;;;;5143902;27;20050;-67
2023/06/15 01:30:48;;;;;;;3.63;3.13;;;16.40;99.90;;;;;;5123869;27;20057;-66
2023/06/15 01:33:15;;;;;;;5.88;3.70;;;16.40;99.90;;;;;;5137186;27;20051;-66
2023/06/15 01:35:41;;;;;;;8.18;3.47;;;16.30;99.90;;;;;;5138243;27;20190;-66
2023/06/15 01:38:07;;;;;;;4.68;3.90;;;16.30;99.90;;;;;;5143461;27;20047;-67
2023/06/15 01:40:36;;;;;;;3.70;3.33;;;16.30;99.90;;;;;;5139762;27;20050;-66
2023/06/15 01:43:05;;;;;;;5.70;3.40;;;16.20;99.90;;;;;;5123350;27;20051;-67
2023/06/15 01:45:34;;;;;;;5.25;3.60;;;16.20;99.90;;;;;;5140324;27;20125;-65
2023/06/15 01:47:59;;;;;;;5.38;3.47;;;16.10;99.90;;;;;;5124539;27;20047;-66
2023/06/15 01:50:26;;;;;;;4.93;3.10;;;16.10;99.90;;;;;;5125129;27;20095;-66
2023/06/15 01:52:52;;;;;;;6.25;4.28;;;16.10;99.90;;;;;;5128258;27;20118;-66
2023/06/15 01:55:18;;;;;;;4.03;3.70;;;16.10;99.90;;;;;;5128203;27;20491;-66
2023/06/15 01:57:43;;;;;;;6.45;3.80;;;16.10;99.90;;;;;;5108668;27;20864;-66
2023/06/15 02:00:11;;;;;;;5.35;3.40;;;16.00;99.90;;;;;;5121097;27;20123;-67
2023/06/15 02:02:37;;;;;;;5.45;3.47;;;16.00;99.90;;;;;;5135804;27;20053;-66
2023/06/15 02:05:04;;;;;;;5.95;3.80;;;16.00;99.90;;;;;;5118380;27;20051;-66
2023/06/15 02:07:29;;;;;;;4.68;2.88;;;15.90;99.90;;;;;;5122970;27;20051;-67
2023/06/15 02:09:55;;;;;;;9.02;3.53;;;15.90;99.90;;;;;;5123959;27;20070;-67
2023/06/15 02:12:21;;;;;;;4.78;3.42;;;15.80;99.90;;;;;;5142281;27;20402;-68
2023/06/15 02:14:49;;;;;;;6.55;4.10;;;15.80;99.90;;;;;;5128702;27;20073;-66
2023/06/15 02:17:18;;;;;;;5.10;3.42;;;15.80;99.90;;;;;;5136069;27;20050;-67
2023/06/15 02:19:47;;;;;;;5.68;4.35;;;15.80;99.90;;;;;;5129842;27;20051;-66
2023/06/15 02:22:15;;;;;;;5.63;4.55;;;15.80;99.90;;;;;;5138454;27;20073;-66
2023/06/15 02:24:42;;;;;;;5.30;3.97;;;15.80;99.90;;;;;;5130366;27;20055;-66
2023/06/15 02:27:08;;;;;;;6.38;4.30;;;15.70;99.90;;;;;;5135638;27;20039;-66
2023/06/15 02:29:34;;;;;;;4.57;3.97;;;15.70;99.90;;;;;;5117469;27;20830;-66
2023/06/15 02:32:00;;;;;;;7.78;4.15;;;15.70;99.90;;;;;;5115915;27;20039;-68
2023/06/15 02:34:25;;;;;;;6.80;4.13;;;15.70;99.90;;;;;;5104464;27;20043;-66
2023/06/15 02:36:53;;;;;;;5.32;3.92;;;15.70;99.90;;;;;;5143806;27;20078;-67
2023/06/15 02:39:20;;;;;;;5.07;4.57;;;15.70;99.90;;;;;;5129417;27;20089;-66
2023/06/15 02:41:46;;;;;;;8.13;4.47;;;15.70;99.90;;;;;;5137155;27;20542;-66
2023/06/15 02:44:11;;;;;;;6.30;4.07;;;15.70;99.90;;;;;;5116436;27;20049;-65
2023/06/15 02:46:37;;;;;;;5.20;3.75;;;15.70;99.90;;;;;;5143102;27;20153;-65
2023/06/15 02:49:03;;;;;;;5.85;4.78;;;15.60;99.90;;;;;;5125056;27;20104;-65
2023/06/15 02:51:28;;;;;;;5.40;4.22;;;15.60;99.90;;;;;;5135760;27;20134;-65
2023/06/15 02:53:54;;;;;;;6.53;4.10;;;15.60;99.90;;;;;;5124530;27;20047;-65
2023/06/15 02:56:20;;;;;;;7.70;4.57;;;15.60;99.90;;;;;;5107286;27;20450;-67
2023/06/15 02:58:53;;;;;;;5.55;4.70;;;15.50;99.90;;;;;;5093040;27;20401;-65
2023/06/15 03:01:20;;;;;;;;;;;15.50;99.90;;;;;;5119071;27;20092;-66
2023/06/15 03:03:45;;;;;;;8.45;5.25;;;15.50;99.90;;;;;;5128200;27;20015;-67
2023/06/15 03:06:11;;;;;;;8.57;4.85;;;15.50;99.90;;;;;;5134940;27;20121;-67
2023/06/15 03:08:38;;;;;;;7.25;5.00;;;15.50;99.90;;;;;;5123423;27;20441;-65
2023/06/15 03:11:04;;;;;;;5.97;4.13;;;15.50;99.90;;;;;;5139234;27;20145;-65
2023/06/15 03:13:30;;;;;;;5.40;4.40;;;15.50;99.90;;;;;;5126922;27;20126;-65
2023/06/15 03:15:56;;;;;;;12.40;5.70;;;15.50;99.90;;;;;;5117782;27;20071;-67
2023/06/15 03:18:22;;;;;;;7.72;5.28;;;15.50;99.90;;;;;;5136459;27;20078;-66
2023/06/15 03:20:52;;;;;;;6.65;4.93;;;15.50;99.90;;;;;;5142870;27;20150;-65
2023/06/15 03:23:21;;;;;;;6.75;4.53;;;15.50;99.90;;;;;;5137905;27;20503;-66
2023/06/15 03:25:49;;;;;;;8.75;5.70;;;15.50;99.90;;;;;;5133069;27;20058;-65
2023/06/15 03:28:16;;;;;;;5.18;3.95;;;15.40;99.90;;;;;;5109498;27;20042;-67
2023/06/15 03:30:46;;;;;;;5.45;4.85;;;15.40;99.90;;;;;;5115706;27;20043;-65
2023/06/15 03:33:13;;;;;;;8.25;5.47;;;15.40;99.90;;;;;;5136202;27;20039;-66
2023/06/15 03:35:39;;;;;;;5.68;4.95;;;15.40;99.90;;;;;;5103742;28;20059;-66
2023/06/15 03:38:05;;;;;;;6.70;4.63;;;15.50;99.90;;;;;;5127996;27;20034;-67
2023/06/15 03:40:36;;;;;;;9.32;5.63;;;15.50;99.90;;;;;;5128780;27;20051;-66
2023/06/15 03:43:02;;;;;;;5.22;3.70;;;15.50;99.90;;;;;;5104816;27;20050;-66
2023/06/15 03:45:28;;;;;;;5.80;5.00;;;15.50;99.90;;;;;;5127909;27;20051;-66
2023/06/15 03:47:53;;;;;;;5.82;5.22;;;15.50;99.90;;;;;;5121285;27;20058;-65
2023/06/15 03:50:19;;;;;;;9.32;5.03;;;15.50;99.90;;;;;;5121872;27;20047;-66
2023/06/15 03:52:45;;;;;;;6.20;4.60;;;15.50;99.90;;;;;;5133955;27;20396;-67
2023/06/15 03:55:12;;;;;;;6.30;5.03;;;15.50;99.90;;;;;;5140274;27;20509;-66
2023/06/15 03:57:38;;;;;;;8.05;5.13;;;15.60;99.90;;;;;;5108492;27;20127;-66
2023/06/15 04:00:07;;;;;;;6.32;4.28;;;15.60;99.90;;;;;;5120912;27;20043;-66
2023/06/15 04:02:33;;;;;;;6.68;5.07;;;15.70;99.90;;;;;;5130157;27;20071;-65
2023/06/15 04:05:00;;;;;;;7.07;4.90;;;15.70;99.90;;;;;;5142158;27;20098;-66
2023/06/15 04:07:28;;;;;;;7.25;4.57;;;15.60;99.90;;;;;;5140729;27;20054;-67
2023/06/15 04:09:54;;;;;;;7.35;4.68;;;15.60;99.90;;;;;;5136620;27;20054;-66
2023/06/15 04:12:20;;;;;;;8.13;4.88;;;15.70;99.90;;;;;;5138631;27;20038;-66
2023/06/15 04:14:46;;;;;;;5.13;4.55;;;15.70;99.90;;;;;;5139535;27;20125;-66
2023/06/15 04:17:12;;;;;;;5.30;4.68;;;15.70;99.90;;;;;;5122413;27;20099;-66
2023/06/15 04:19:37;;;;;;;5.20;4.70;;;15.80;99.90;;;;;;5124399;27;20038;-66
2023/06/15 04:22:03;;;;;;;6.43;4.22;;;15.80;99.90;;;;;;5129576;27;20465;-66
2023/06/15 04:24:29;;;;;;;6.38;5.03;;;15.90;99.90;;;;;;5120945;27;20062;-68
2023/06/15 04:26:57;;;;;;;7.70;6.22;;;15.90;99.90;;;;;;5120086;27;20538;-66
2023/06/15 04:29:22;;;;;;;5.45;4.75;;;15.90;99.90;;;;;;5124725;27;20054;-68
2023/06/15 04:31:54;;;;;;;7.05;4.22;;;16.00;99.90;;;;;;5125926;27;20054;-66
2023/06/15 04:34:22;;;;;;;7.03;4.53;;;16.00;99.90;;;;;;5136829;27;20054;-68
2023/06/15 04:36:48;;;;;;;6.53;5.32;;;16.10;99.90;;;;;;5138830;27;20074;-67
2023/06/15 04:39:14;;;;;;;7.00;5.10;;;16.10;99.90;;;;;;5135209;27;20051;-67
2023/06/15 04:41:40;;;;;;;7.53;5.10;;;16.10;99.90;;;;;;5120309;27;20039;-67
2023/06/15 04:44:06;;;;;;;6.95;4.05;;;16.20;99.90;;;;;;5133868;27;20406;-66
2023/06/15 04:46:32;;;;;;;7.25;4.78;;;16.30;99.90;;;;;;5129187;27;20058;-67
2023/06/15 04:49:00;;;;;;;7.45;4.22;;;16.30;99.90;;;;;;5138979;27;20049;-66
2023/06/15 04:51:26;;;;;;;8.30;4.80;;;16.40;99.90;;;;;;5128245;27;20054;-66
2023/06/15 04:53:52;;;;;;;7.38;4.60;;;16.40;99.90;;;;;;5130885;27;20072;-66
2023/06/15 04:56:17;;;;;;;10.60;5.47;;;16.50;99.90;;;;;;5130724;27;20107;-66
2023/06/15 04:58:43;;;;;;;4.90;4.28;;;16.60;99.90;;;;;;5131158;27;20404;-66
2023/06/15 05:01:09;;;;;;;5.25;4.30;;;16.60;99.90;;;;;;5107484;27;20043;-67
2023/06/15 05:03:35;;;;;;;10.18;5.43;;;16.60;99.90;;;;;;5135480;27;20077;-66
2023/06/15 05:06:01;;;;;;;6.45;5.28;;;16.70;99.90;;;;;;5138550;27;20122;-66
2023/06/15 05:08:26;;;;;;;7.60;5.25;;;16.70;99.90;;;;;;5120214;27;20518;-66
2023/06/15 05:10:52;;;;;;;8.68;5.10;;;16.70;99.90;;;;;;5121599;27;20042;-66
2023/06/15 05:13:18;;;;;;;6.15;4.65;;;16.80;99.90;;;;;;5136657;27;20050;-68
2023/06/15 05:15:43;;;;;;;6.18;4.45;;;16.80;99.90;;;;;;5140740;27;21044;-65
2023/06/15 05:18:09;;;;;;;6.25;5.15;;;16.90;99.90;;;;;;5126966;27;20039;-68
2023/06/15 05:20:35;;;;;;;8.13;5.63;;;17.00;99.90;;;;;;5128819;27;20054;-66
2023/06/15 05:23:00;;;;;;;8.77;5.50;;;17.10;99.90;;;;;;5128581;27;20535;-66
2023/06/15 05:25:26;;;;;;;7.28;4.90;;;17.10;99.90;;;;;;5137774;27;20576;-66
2023/06/15 05:27:52;;;;;;;8.38;4.82;;;17.20;99.90;;;;;;5121531;27;20039;-66
2023/06/15 05:30:17;;;;;;;8.30;4.72;;;17.20;99.90;;;;;;5133234;27;20103;-66
2023/06/15 05:32:43;;;;;;;20.35;8.05;;;17.30;99.90;;;;;;5142996;27;20066;-66
2023/06/15 05:35:09;;;;;;;8.65;5.05;;;17.40;99.90;;;;;;5141970;27;20049;-67
2023/06/15 05:37:36;;;;;;;7.45;5.38;;;17.50;99.90;;;;;;5112052;27;20054;-68
2023/06/15 05:40:02;;;;;;;6.15;4.88;;;17.50;99.90;;;;;;5125871;27;20497;-65
2023/06/15 05:42:29;;;;;;;7.68;5.05;;;17.70;99.90;;;;;;5141633;27;20257;-67
2023/06/15 05:44:55;;;;;;;5.85;4.80;;;17.80;99.90;;;;;;5130514;27;20046;-67
2023/06/15 05:47:20;;;;;;;12.98;4.97;;;17.90;99.90;;;;;;5140542;27;20046;-67
2023/06/15 05:49:46;;;;;;;5.97;4.72;;;18.00;99.90;;;;;;5136955;27;20035;-66
2023/06/15 05:52:14;;;;;;;7.75;4.50;;;18.10;99.90;;;;;;5132619;27;20054;-67
2023/06/15 05:54:42;;;;;;;6.93;4.82;;;18.20;99.90;;;;;;5117272;27;20046;-66
2023/06/15 05:57:09;;;;;;;3.95;3.53;;;18.40;99.90;;;;;;5115963;27;20051;-66
2023/06/15 05:59:36;;;;;;;7.70;4.60;;;18.50;99.90;;;;;;5119434;27;20218;-66
2023/06/15 06:02:02;;;;;;;5.72;4.03;;;18.60;99.90;;;;;;5103234;27;20062;-66
2023/06/15 06:04:28;;;;;;;8.05;4.28;;;18.60;99.90;;;;;;5129585;27;20050;-66
2023/06/15 06:06:53;;;;;;;4.60;3.28;;;18.80;99.90;;;;;;5129096;27;20062;-68
2023/06/15 06:09:19;;;;;;;8.15;3.80;;;18.90;99.90;;;;;;5123595;27;20051;-66
2023/06/15 06:11:48;;;;;;;5.22;3.80;;;19.00;99.90;;;;;;5134650;27;20115;-68
2023/06/15 06:14:15;;;;;;;7.93;3.83;;;19.00;99.90;;;;;;5141106;27;20035;-68
2023/06/15 06:16:42;;;;;;;6.00;3.22;;;19.30;99.90;;;;;;5123291;27;20043;-66
2023/06/15 06:19:07;;;;;;;5.47;3.58;;;19.90;99.90;;;;;;5123599;27;20082;-67
2023/06/15 06:21:33;;;;;;;6.13;3.60;;;21.10;99.30;;;;;;5139591;27;20171;-67
2023/06/15 06:23:59;;;;;;;7.00;3.83;;;22.60;97.10;;;;;;5122809;27;20050;-67
2023/06/15 06:26:25;;;;;;;8.60;3.67;;;23.80;95.20;;;;;;5139211;27;20106;-67
2023/06/15 06:28:57;;;;;;;5.85;3.67;;;24.90;93.40;;;;;;5141403;27;20050;-68
2023/06/15 06:31:23;;;;;;;3.65;3.20;;;25.60;92.30;;;;;;5137344;27;20082;-67
2023/06/15 06:33:48;;;;;;;3.35;3.03;;;26.20;91.80;;;;;;5137568;27;20146;-67
2023/06/15 06:36:14;;;;;;;5.10;4.05;;;26.80;90.90;;;;;;5136995;27;20074;-68
2023/06/15 06:38:40;;;;;;;6.00;3.58;;;26.80;89.50;;;;;;5118124;27;20057;-69
2023/06/15 06:41:06;;;;;;;5.00;3.13;;;27.20;88.60;;;;;;5141524;27;20086;-69
2023/06/15 06:43:31;;;;;;;7.32;3.17;;;27.80;87.30;;;;;;5139333;27;20126;-69
2023/06/15 06:45:57;;;;;;;5.60;2.70;;;28.10;85.50;;;;;;5130617;27;20111;-68
2023/06/15 06:48:23;;;;;;;4.47;2.80;;;28.20;82.90;;;;;;5108463;27;20078;-67
2023/06/15 06:50:48;;;;;;;5.22;2.70;;;28.00;80.90;;;;;;5093584;27;20062;-67
2023/06/15 06:53:14;;;;;;;5.28;2.80;;;27.40;80.70;;;;;;5119770;27;20051;-68
2023/06/15 06:55:42;;;;;;;5.38;2.88;;;27.10;81.50;;;;;;5140933;27;20043;-67
2023/06/15 06:58:08;;;;;;;5.13;2.72;;;28.00;80.30;;;;;;5137215;27;20054;-68
2023/06/15 07:00:33;;;;;;;4.90;2.75;;;28.30;79.70;;;;;;5126844;27;20927;-66
2023/06/15 07:02:59;;;;;;;2.80;2.45;;;28.10;78.60;;;;;;5127732;27;20043;-68
2023/06/15 07:05:25;;;;;;;4.55;3.05;;;28.70;79.00;;;;;;5128443;27;20082;-67
2023/06/15 07:07:50;;;;;;;5.00;3.13;;;28.90;78.00;;;;;;5122896;27;20113;-67
2023/06/15 07:10:16;;;;;;;4.47;3.13;;;28.70;73.70;;;;;;5116510;27;20046;-66
2023/06/15 07:12:42;;;;;;;2.88;2.47;;;28.60;76.90;;;;;;5136844;27;20042;-66
2023/06/15 07:15:08;;;;;;;4.97;2.92;;;28.40;75.60;;;;;;5125162;27;20058;-65
2023/06/15 07:17:33;;;;;;;5.25;3.22;;;28.80;75.30;;;;;;5122042;27;20055;-66
2023/06/15 07:20:00;;;;;;;4.75;3.15;;;29.20;75.10;;;;;;5121743;27;20051;-66
2023/06/15 07:22:25;;;;;;;4.80;2.50;;;29.30;74.00;;;;;;5132968;27;20103;-66
2023/06/15 07:24:52;;;;;;;4.63;2.70;;;29.60;73.30;;;;;;5130551;27;20507;-65
2023/06/15 07:27:18;;;;;;;6.78;2.97;;;29.90;73.10;;;;;;5132422;27;20164;-65
2023/06/15 07:29:45;;;;;;;5.30;3.08;;;30.50;72.80;;;;;;5138334;27;20085;-66
2023/06/15 07:32:10;;;;;;;4.25;2.67;;;30.10;71.00;;;;;;5104790;27;20051;-67
2023/06/15 07:34:36;;;;;;;5.88;3.30;;;30.60;71.10;;;;;;5104042;27;20046;-65
2023/06/15 07:37:02;;;;;;;5.15;3.25;;;30.70;71.10;;;;;;5123694;27;20098;-67
2023/06/15 07:39:28;;;;;;;5.20;3.03;;;30.50;70.30;;;;;;5137481;27;20817;-65
2023/06/15 07:41:55;;;;;;;4.88;3.00;;;30.40;69.80;;;;;;5139657;27;20545;-68
2023/06/15 07:44:21;;;;;;;5.28;2.60;;;30.60;69.90;;;;;;5108373;27;20039;-66
2023/06/15 07:46:46;;;;;;;5.05;2.72;;;30.80;68.90;;;;;;5132826;27;20039;-67
2023/06/15 07:49:12;;;;;;;2.80;2.45;;;31.40;68.20;;;;;;5138789;27;20072;-67
2023/06/15 07:51:38;;;;;;;7.47;2.72;;;31.20;67.20;;;;;;5129847;27;20046;-66
2023/06/15 07:54:04;;;;;;;3.00;2.60;;;31.00;67.10;;;;;;5116185;27;20844;-66
2023/06/15 07:56:29;;;;;;;5.82;2.80;;;31.30;67.30;;;;;;5131479;27;20769;-66
2023/06/15 07:58:55;;;;;;;3.47;2.58;;;31.30;66.60;;;;;;5101345;27;20561;-66
2023/06/15 08:01:21;;;;;;;4.00;2.90;;;31.40;66.20;;;;;;5131721;27;20133;-68
2023/06/15 08:03:47;;;;;;;3.83;2.75;;;31.80;65.90;;;;;;5114438;27;20043;-67
2023/06/15 08:06:12;;;;;;;4.70;2.42;;;31.90;64.80;;;;;;5111895;28;20824;-65
2023/06/15 08:08:38;;;;;;;6.10;2.80;;;31.50;64.90;;;;;;5132025;27;20605;-66
2023/06/15 08:11:07;;;;;;;3.58;2.60;;;31.70;63.80;;;;;;5138833;27;20673;-66
2023/06/15 08:13:33;;;;;;;2.55;2.35;;;31.20;64.20;;;;;;5122585;27;20058;-67
2023/06/15 08:15:59;;;;;;;3.65;2.40;;;31.40;64.60;;;;;;5130458;27;20135;-66
2023/06/15 08:18:28;;;;;;;4.93;2.50;;;31.20;64.50;;;;;;5138722;27;20054;-66
2023/06/15 08:20:53;;;;;;;3.63;2.22;;;30.70;64.20;;;;;;5132820;27;20074;-66
2023/06/15 08:23:19;;;;;;;3.53;2.25;;;30.90;64.60;;;;;;5125246;27;20212;-67
2023/06/15 08:25:46;;;;;;;2.78;2.20;;;30.40;64.30;;;;;;5124162;27;20046;-67
2023/06/15 08:28:12;;;;;;;2.85;2.58;;;31.00;64.40;;;;;;5140496;27;20050;-68
2023/06/15 08:30:37;;;;;;;5.25;3.13;;;31.60;63.90;;;;;;5126033;27;20051;-68
2023/06/15 08:33:03;;;;;;;6.00;2.53;;;31.30;63.20;;;;;;5137911;27;20368;-68
2023/06/15 08:35:29;;;;;;;4.05;2.78;;;31.50;63.20;;;;;;5123327;27;20175;-67
2023/06/15 08:37:55;;;;;;;2.55;1.92;;;30.60;63.70;;;;;;5140237;27;20043;-68
2023/06/15 08:40:20;;;;;;;5.38;2.20;;;30.60;64.20;;;;;;5125570;27;20054;-67
2023/06/15 08:42:47;;;;;;;2.40;2.30;;;30.90;63.40;;;;;;5137297;27;20050;-66
2023/06/15 08:45:13;;;;;;;3.22;2.80;;;30.90;62.80;;;;;;5121796;27;20097;-67
2023/06/15 08:47:40;;;;;;;3.20;2.90;;;31.00;62.90;;;;;;5137378;27;20102;-67
2023/06/15 08:50:06;;;;;;;3.38;2.33;;;31.00;63.40;;;;;;5120967;27;20046;-68
2023/06/15 08:52:36;;;;;;;2.53;2.30;;;30.70;63.00;;;;;;5144363;27;20050;-66
2023/06/15 08:55:03;;;;;;;4.35;2.47;;;31.20;62.90;;;;;;5122359;27;20054;-68
2023/06/15 08:57:31;;;;;;;6.25;3.22;;;31.20;62.80;;;;;;5143116;27;20712;-69
2023/06/15 08:59:57;;;;;;;3.30;3.00;;;31.10;62.30;;;;;;5117894;27;20046;-68
2023/06/15 09:02:25;;;;;;;3.95;2.50;;;31.30;62.20;;;;;;5138959;27;20061;-68
2023/06/15 09:04:51;;;;;;;4.80;3.35;;;31.50;61.00;;;;;;5142778;27;20034;-69
2023/06/15 09:07:21;;;;;;;4.88;2.67;;;31.20;61.10;;;;;;5142225;27;20050;-69
2023/06/15 09:10:11;;;;;;;4.72;2.60;;;30.80;60.50;;;;;;5143292;27;20042;-67
2023/06/15 09:13:01;;;;;;;4.63;2.60;;;30.80;59.60;;;;;;5120921;27;20076;-66
2023/06/15 09:15:29;;;;;;;6.30;2.65;;;30.80;61.50;;;;;;5126260;27;20050;-67
2023/06/15 09:17:56;;;;;;;6.57;2.90;;;31.40;60.90;;;;;;5125679;27;20047;-68
2023/06/15 09:20:26;;;;;;;3.60;2.90;;;31.20;60.40;;;;;;5127892;27;20043;-66
2023/06/15 09:22:58;;;;;;;2.47;2.28;;;31.40;59.90;;;;;;5131291;27;20063;-68
2023/06/15 09:25:24;;;;;;;2.72;2.15;;;31.60;60.50;;;;;;5124464;27;20055;-66
2023/06/15 09:27:52;;;;;;;3.67;2.78;;;31.30;60.00;;;;;;5142678;27;20054;-68
2023/06/15 09:30:18;;;;;;;6.47;2.92;;;31.00;59.90;;;;;;5121317;27;20102;-67
2023/06/15 09:32:43;;;;;;;3.35;2.75;;;30.80;59.90;;;;;;5125228;27;20882;-67
2023/06/15 09:35:09;;;;;;;3.38;2.63;;;29.70;58.10;;;;;;5118925;27;20050;-67
2023/06/15 09:37:37;;;;;;;3.72;2.83;;;30.40;59.90;;;;;;5140500;27;20153;-67
2023/06/15 09:40:10;;;;;;;3.90;2.40;;;30.10;60.10;;;;;;5137179;27;20053;-67
2023/06/15 09:42:38;;;;;;;4.10;2.80;;;29.90;59.60;;;;;;5138083;27;20053;-67
2023/06/15 09:45:05;;;;;;;3.05;2.22;;;29.90;60.00;;;;;;5135706;27;20406;-66
2023/06/15 09:47:32;;;;;;;3.28;2.50;;;30.30;60.10;;;;;;5136250;27;20510;-68
2023/06/15 09:50:07;;;;;;;5.57;3.22;;;30.60;59.50;;;;;;5133996;27;20053;-67
2023/06/15 09:52:36;;;;;;;3.97;2.67;;;30.60;59.10;;;;;;5134217;27;20042;-67
2023/06/15 09:55:04;;;;;;;3.90;2.58;;;30.20;59.20;;;;;;5121606;27;20759;-68
2023/06/15 09:57:31;;;;;;;3.30;2.47;;;30.10;59.10;;;;;;5140243;27;20447;-66
2023/06/15 09:59:56;;;;;;;2.70;2.47;;;29.80;59.40;;;;;;5141133;27;20053;-67
2023/06/15 10:02:22;;;;;;;6.20;2.80;;;30.10;59.00;;;;;;5114175;27;20046;-68
2023/06/15 10:04:48;;;;;;;4.70;2.65;;;30.20;58.80;;;;;;5140563;27;20119;-67
2023/06/15 10:07:18;;;;;;;4.00;2.83;;;30.20;59.20;;;;;;5138629;27;20427;-68
2023/06/15 10:09:49;;;;;;;4.20;3.80;;;30.40;59.00;;;;;;5129703;27;20574;-67
2023/06/15 10:12:25;;;;;;;5.70;2.88;;;30.20;57.70;;;;;;5137016;27;20057;-67
2023/06/15 10:15:04;;;;;;;3.42;2.10;;;30.10;56.70;;;;;;5131676;27;20054;-68
2023/06/15 10:17:34;;;;;;;4.13;2.35;;;29.30;56.60;;;;;;5107475;27;20062;-67
2023/06/15 10:20:08;;;;;;;3.55;2.63;;;29.20;57.70;;;;;;5124680;27;20039;-67
2023/06/15 10:22:46;;;;;;;3.75;2.55;;;29.50;57.60;;;;;;5112426;27;20042;-67
2023/06/15 10:25:14;;;;;;;4.50;3.05;;;29.70;57.20;;;;;;5133388;27;20051;-67
2023/06/15 10:27:40;;;;;;;8.77;2.75;;;30.50;58.00;;;;;;5114728;27;20403;-68
2023/06/15 10:30:14;;;;;;;4.78;2.50;;;30.80;58.00;;;;;;5139114;27;20046;-69
2023/06/15 10:32:51;;;;;;;5.10;2.63;;;31.30;57.40;;;;;;5139769;27;20392;-67
2023/06/15 10:35:35;;;;;;;3.83;2.60;;;30.90;56.00;;;;;;5140304;27;20246;-67
2023/06/15 10:38:21;;;;;;;4.90;2.47;;;30.50;56.60;;;;;;5136733;27;20795;-66
2023/06/15 10:40:48;;;;;;;4.43;2.40;;;30.40;56.80;;;;;;5118921;27;20054;-67
2023/06/15 10:43:21;;;;;;;4.28;2.45;;;30.60;57.20;;;;;;5123246;27;20770;-66
2023/06/15 10:45:48;;;;;;;3.13;2.83;;;30.70;56.50;;;;;;5135731;27;20051;-66
2023/06/15 10:48:21;;;;;;;4.00;2.67;;;31.20;57.10;;;;;;5139116;27;20119;-66
2023/06/15 10:50:48;;;;;;;4.03;2.35;;;31.40;55.30;;;;;;5140394;27;20043;-68
2023/06/15 10:53:43;;;;;;;2.85;2.13;;;31.50;56.30;;;;;;5138557;27;20395;-66
2023/06/15 10:56:27;;;;;;;4.88;2.80;;;31.30;54.80;;;;;;5126476;27;20115;-65
2023/06/15 10:59:00;;;;;;;4.50;2.70;;;31.10;55.90;;;;;;5103933;27;20043;-65
2023/06/15 11:01:33;;;;;;;2.92;2.22;;;30.50;55.70;;;;;;5114914;27;20157;-68
2023/06/15 11:04:28;;;;;;;4.88;2.67;;;30.20;55.90;;;;;;5120319;27;20078;-66
2023/06/15 11:07:01;;;;;;;2.65;2.45;;;29.70;54.30;;;;;;5141396;27;20050;-65
2023/06/15 11:09:34;;;;;;;4.00;2.40;;;29.50;54.20;;;;;;5141556;27;20046;-67
2023/06/15 11:12:00;;;;;;;4.25;2.60;;;29.30;55.60;;;;;;5126181;27;20600;-65
2023/06/15 11:14:26;;;;;;;3.30;2.67;;;29.10;55.30;;;;;;5141547;27;20058;-67
2023/06/15 11:17:03;;;;;;;9.38;3.25;;;29.00;55.30;;;;;;5122021;27;20133;-66
2023/06/15 11:19:29;;;;;;;4.57;2.78;;;29.00;56.00;;;;;;5135978;27;20047;-65
2023/06/15 11:21:59;;;;;;;4.28;3.28;;;29.10;55.20;;;;;;5140934;27;20042;-65
2023/06/15 11:24:34;;;;;;;4.45;3.03;;;29.30;55.00;;;;;;5140784;27;20054;-65
2023/06/15 11:27:04;;;;;;;4.50;2.90;;;29.60;55.30;;;;;;5117247;27;20370;-65
2023/06/15 11:29:33;;;;;;;4.55;2.90;;;29.30;55.20;;;;;;5136011;27;20039;-66
2023/06/15 11:32:04;;;;;;;4.15;2.80;;;29.10;54.70;;;;;;5134863;27;20166;-65
2023/06/15 11:34:33;;;;;;;4.28;2.97;;;28.70;55.30;;;;;;5125348;27;20042;-65
2023/06/15 11:37:03;;;;;;;3.67;3.03;;;28.90;55.80;;;;;;5134975;27;20050;-65
2023/06/15 11:39:30;;;;;;;5.20;2.75;;;28.90;55.80;;;;;;5109773;27;20054;-64
2023/06/15 11:41:58;;;;;;;3.85;2.65;;;28.90;55.60;;;;;;5120951;27;20050;-65
2023/06/15 11:44:26;;;;;;;4.30;3.50;;;28.80;55.40;;;;;;5127582;27;20039;-64
2023/06/15 11:47:00;;;;;;;5.60;3.25;;;28.70;55.50;;;;;;5090633;28;20153;-65
2023/06/15 11:49:35;;;;;;;4.28;2.80;;;29.10;55.70;;;;;;5135151;27;20047;-66
2023/06/15 11:52:02;;;;;;;3.22;2.92;;;29.00;55.30;;;;;;5114626;27;20046;-65
2023/06/15 11:54:28;;;;;;;5.20;2.90;;;28.90;56.40;;;;;;5144638;27;20122;-65
2023/06/15 11:56:58;;;;;;;7.72;3.08;;;28.90;56.60;;;;;;5145404;27;20157;-66
2023/06/15 11:59:25;;;;;;;5.18;2.75;;;28.90;56.50;;;;;;5142002;27;20050;-65
2023/06/15 12:01:51;;;;;;;3.50;2.42;;;29.10;55.60;;;;;;5114564;27;20047;-65
2023/06/15 12:04:17;;;;;;;4.20;3.13;;;29.10;54.70;;;;;;5144423;27;20043;-65
2023/06/15 12:06:45;;;;;;;4.57;3.35;;;29.00;54.20;;;;;;5126583;27;20035;-65
2023/06/15 12:09:11;;;;;;;2.78;2.58;;;29.10;54.20;;;;;;5126252;27;20050;-65
2023/06/15 12:11:37;;;;;;;2.65;2.35;;;29.20;53.70;;;;;;5145310;27;20051;-68
2023/06/15 12:14:11;;;;;;;6.28;2.88;;;29.30;53.60;;;;;;5143493;27;20509;-64
2023/06/15 12:16:38;;;;;;;7.90;3.00;;;29.40;53.70;;;;;;5144156;27;20145;-65
2023/06/15 12:19:08;;;;;;;3.40;2.95;;;29.40;54.10;;;;;;5145721;27;20046;-64
2023/06/15 12:21:37;;;;;;;3.45;3.10;;;29.00;55.10;;;;;;5112729;27;20388;-64
2023/06/15 12:24:37;;;;;;;4.45;3.08;;;28.80;55.00;;;;;;5117198;27;20055;-65
2023/06/15 12:27:15;;;;;;;3.90;2.75;;;28.70;54.60;;;;;;5132354;27;20039;-67
2023/06/15 12:29:41;;;;;;;5.10;3.10;;;28.70;55.80;;;;;;5142685;27;20042;-65
2023/06/15 12:32:07;;;;;;;3.10;2.72;;;28.60;55.70;;;;;;5143157;27;20494;-65
2023/06/15 12:34:33;;;;;;;4.40;2.72;;;28.60;55.40;;;;;;5136025;27;20054;-66
2023/06/15 12:36:59;;;;;;;8.75;3.28;;;28.40;55.20;;;;;;5137463;27;20061;-65
2023/06/15 12:39:28;;;;;;;4.97;2.92;;;28.60;55.10;;;;;;5133925;27;20058;-66
2023/06/15 12:42:02;;;;;;;5.13;2.60;;;28.70;55.50;;;;;;5144788;27;20054;-65
2023/06/15 12:44:29;;;;;;;3.60;2.88;;;28.60;56.30;;;;;;5133967;27;20035;-66
2023/06/15 12:46:55;;;;;;;5.68;3.35;;;28.80;56.00;;;;;;5124376;27;20055;-65
2023/06/15 12:49:21;;;;;;;5.03;2.78;;;28.70;55.50;;;;;;5137729;27;20104;-67
2023/06/15 12:51:47;;;;;;;3.90;2.70;;;28.70;54.70;;;;;;5143343;27;20039;-65